Kaishinmaru — JI3680 — position and weather

sailwx.info

Track history (hours):
 
Tides and Currents Weather Stations Pressure Air Temp Water Temp Dewpoint Dewpoint Depression Visibility Wind Speed Wind Dir Waves Ship Positions

Kaishinmaru

Last reported at 2017-Oct-14 00:22 UTC. Time now 2017-Oct-19 18:16 UTC.
Position N 34°40' E 135°27'.

Length 27 m.

Type: Tug. MMSI: 431301512.

Date/timePositionNaut miles runAvg speedWind from/ knotsBaromVisibWave heightAir tempDewpointWater temp
2017-Oct-14 00:22N 34°40' E 135°27'2 4.6
2017-Oct-14 00:00N 34°39' E 135°25'2 4.4
2017-Oct-13 23:30N 34°38' E 135°23'1 2.5
2017-Oct-13 22:59N 34°37' E 135°22'2 3.6
2017-Oct-13 22:28N 34°36' E 135°20'1 2.0
2017-Oct-13 21:57N 34°36' E 135°19'1 1.2
2017-Oct-13 21:25N 34°35' E 135°18'0 0.3
2017-Oct-13 20:58N 34°35' E 135°18'1 1.5
2017-Oct-13 20:31N 34°35' E 135°17'1 2.0
2017-Oct-13 20:01N 34°36' E 135°16'1 2.0
2017-Oct-13 19:30N 34°35' E 135°14'1 2.0
2017-Oct-13 19:00N 34°35' E 135°13'1 2.0
2017-Oct-13 18:28N 34°35' E 135°12'1 2.7
2017-Oct-13 17:59N 34°35' E 135°10'1 2.8
2017-Oct-13 17:30N 34°35' E 135°09'2 3.4
2017-Oct-13 16:59N 34°35' E 135°07'2 4.1
2017-Oct-13 16:30N 34°35' E 135°04'2 4.6
2017-Oct-13 15:59N 34°36' E 135°02'5 0.2
2017-Oct-12 03:56N 34°36' E 135°09'511.4
2017-Oct-12 03:30N 34°37' E 135°15'611.2
2017-Oct-12 02:58N 34°39' E 135°22'  
2017-Oct-09 04:23N 34°39' E 135°26'4 9.9
2017-Oct-09 03:56N 34°39' E 135°21'510.8
2017-Oct-09 03:29N 34°37' E 135°15'510.7
2017-Oct-09 02:59N 34°35' E 135°09'5 0.4
2017-Oct-08 13:45N 34°36' E 135°03'1 4.1
2017-Oct-08 13:29N 34°36' E 135°05'2 3.3
2017-Oct-08 13:00N 34°35' E 135°07'2 3.0
2017-Oct-08 12:30N 34°36' E 135°08'2 3.3
2017-Oct-08 12:00N 34°36' E 135°10'2 3.4
2017-Oct-08 11:30N 34°36' E 135°12'1 1.4
2017-Oct-08 11:00N 34°35' E 135°13'1 1.6
2017-Oct-08 10:30N 34°36' E 135°12'1 1.9
2017-Oct-08 10:00N 34°36' E 135°13'1 2.2
2017-Oct-08 09:30N 34°36' E 135°14'1 2.1
2017-Oct-08 08:59N 34°36' E 135°16'1 2.1
2017-Oct-08 08:30N 34°36' E 135°17'1 2.1
2017-Oct-08 07:59N 34°37' E 135°18'1 2.6
2017-Oct-08 07:28N 34°37' E 135°20'2 3.2
2017-Oct-08 06:58N 34°37' E 135°22'1 1.5
2017-Oct-08 06:30N 34°38' E 135°22'0 0.3
2017-Oct-08 05:58N 34°38' E 135°22'5 0.1
2017-Oct-06 02:47N 34°39' E 135°27'3 9.5
2017-Oct-06 02:29N 34°40' E 135°24'3 5.4
2017-Oct-06 01:55N 34°41' E 135°21'0 0.2
2017-Oct-06 01:29N 34°41' E 135°21'0 0.3
2017-Oct-06 00:26N 34°41' E 135°21'1 1.7
2017-Oct-05 23:59N 34°40' E 135°22'5 4.4
2017-Oct-05 22:50N 34°39' E 135°28'0 0.0
2017-Oct-05 21:14N 34°39' E 135°28'0 0.0
2017-Oct-05 19:26N 34°39' E 135°28'0 0.0
2017-Oct-05 18:44N 34°39' E 135°28'0 0.0
2017-Oct-05 17:56N 34°39' E 135°28'0 0.0
2017-Oct-05 17:26N 34°39' E 135°28'0 0.0
2017-Oct-05 16:56N 34°39' E 135°28'2 0.2
2017-Oct-05 06:25N 34°39' E 135°26'2 3.8
2017-Oct-05 05:55N 34°38' E 135°24'2 4.8
2017-Oct-05 05:30N 34°37' E 135°22'2 3.8
2017-Oct-05 04:56N 34°36' E 135°20'2 4.9
2017-Oct-05 04:30N 34°36' E 135°17'3 5.4
2017-Oct-05 04:00N 34°35' E 135°14'3 5.5
2017-Oct-05 03:29N 34°35' E 135°11'3 5.7
2017-Oct-05 02:59N 34°35' E 135°07'3 5.6
2017-Oct-05 02:28N 34°35' E 135°04'  
Track history (hours):
 
Tides and Currents Weather Stations Pressure Air Temp Water Temp Dewpoint Dewpoint Depression Visibility Wind Speed Wind Dir Waves Ship Positions

Kaishinmaru

Last reported at 2017-Oct-14 00:22 UTC. Time now 2017-Oct-19 18:16 UTC.
Position N 34°40' E 135°27'.

Length 27 m.

Type: Tug. MMSI: 431301512.

Date/timePositionNaut miles runAvg speedWind from/ knotsBaromVisibWave heightAir tempDewpointWater temp
2017-Oct-14 00:22N 34°40' E 135°27'2 4.6
2017-Oct-14 00:00N 34°39' E 135°25'2 4.4
2017-Oct-13 23:30N 34°38' E 135°23'1 2.5
2017-Oct-13 22:59N 34°37' E 135°22'2 3.6
2017-Oct-13 22:28N 34°36' E 135°20'1 2.0
2017-Oct-13 21:57N 34°36' E 135°19'1 1.2
2017-Oct-13 21:25N 34°35' E 135°18'0 0.3
2017-Oct-13 20:58N 34°35' E 135°18'1 1.5
2017-Oct-13 20:31N 34°35' E 135°17'1 2.0
2017-Oct-13 20:01N 34°36' E 135°16'1 2.0
2017-Oct-13 19:30N 34°35' E 135°14'1 2.0
2017-Oct-13 19:00N 34°35' E 135°13'1 2.0
2017-Oct-13 18:28N 34°35' E 135°12'1 2.7
2017-Oct-13 17:59N 34°35' E 135°10'1 2.8
2017-Oct-13 17:30N 34°35' E 135°09'2 3.4
2017-Oct-13 16:59N 34°35' E 135°07'2 4.1
2017-Oct-13 16:30N 34°35' E 135°04'2 4.6
2017-Oct-13 15:59N 34°36' E 135°02'5 0.2
2017-Oct-12 03:56N 34°36' E 135°09'511.4
2017-Oct-12 03:30N 34°37' E 135°15'611.2
2017-Oct-12 02:58N 34°39' E 135°22'  
2017-Oct-09 04:23N 34°39' E 135°26'4 9.9
2017-Oct-09 03:56N 34°39' E 135°21'510.8
2017-Oct-09 03:29N 34°37' E 135°15'510.7
2017-Oct-09 02:59N 34°35' E 135°09'5 0.4
2017-Oct-08 13:45N 34°36' E 135°03'1 4.1
2017-Oct-08 13:29N 34°36' E 135°05'2 3.3
2017-Oct-08 13:00N 34°35' E 135°07'2 3.0
2017-Oct-08 12:30N 34°36' E 135°08'2 3.3
2017-Oct-08 12:00N 34°36' E 135°10'2 3.4
2017-Oct-08 11:30N 34°36' E 135°12'1 1.4
2017-Oct-08 11:00N 34°35' E 135°13'1 1.6
2017-Oct-08 10:30N 34°36' E 135°12'1 1.9
2017-Oct-08 10:00N 34°36' E 135°13'1 2.2
2017-Oct-08 09:30N 34°36' E 135°14'1 2.1
2017-Oct-08 08:59N 34°36' E 135°16'1 2.1
2017-Oct-08 08:30N 34°36' E 135°17'1 2.1
2017-Oct-08 07:59N 34°37' E 135°18'1 2.6
2017-Oct-08 07:28N 34°37' E 135°20'2 3.2
2017-Oct-08 06:58N 34°37' E 135°22'1 1.5
2017-Oct-08 06:30N 34°38' E 135°22'0 0.3
2017-Oct-08 05:58N 34°38' E 135°22'5 0.1
2017-Oct-06 02:47N 34°39' E 135°27'3 9.5
2017-Oct-06 02:29N 34°40' E 135°24'3 5.4
2017-Oct-06 01:55N 34°41' E 135°21'0 0.2
2017-Oct-06 01:29N 34°41' E 135°21'0 0.3
2017-Oct-06 00:26N 34°41' E 135°21'1 1.7
2017-Oct-05 23:59N 34°40' E 135°22'5 4.4
2017-Oct-05 22:50N 34°39' E 135°28'0 0.0
2017-Oct-05 21:14N 34°39' E 135°28'0 0.0
2017-Oct-05 19:26N 34°39' E 135°28'0 0.0
2017-Oct-05 18:44N 34°39' E 135°28'0 0.0
2017-Oct-05 17:56N 34°39' E 135°28'0 0.0
2017-Oct-05 17:26N 34°39' E 135°28'0 0.0
2017-Oct-05 16:56N 34°39' E 135°28'2 0.2
2017-Oct-05 06:25N 34°39' E 135°26'2 3.8
2017-Oct-05 05:55N 34°38' E 135°24'2 4.8
2017-Oct-05 05:30N 34°37' E 135°22'2 3.8
2017-Oct-05 04:56N 34°36' E 135°20'2 4.9
2017-Oct-05 04:30N 34°36' E 135°17'3 5.4
2017-Oct-05 04:00N 34°35' E 135°14'3 5.5
2017-Oct-05 03:29N 34°35' E 135°11'3 5.7
2017-Oct-05 02:59N 34°35' E 135°07'3 5.6
2017-Oct-05 02:28N 34°35' E 135°04'  

Dump ship's entire track history